sensor_id;sensor_type;location;lat;lon;timestamp;P1;durP1;ratioP1;P2;durP2;ratioP2
63016;SDS011;50274;45.640;11.756;2022-12-20T00:00:16;37.03;;;21.45;;
63016;SDS011;50274;45.640;11.756;2022-12-20T00:02:42;37.72;;;21.67;;
63016;SDS011;50274;45.640;11.756;2022-12-20T00:05:09;47.27;;;25.70;;
63016;SDS011;50274;45.640;11.756;2022-12-20T00:07:34;42.38;;;23.83;;
63016;SDS011;50274;45.640;11.756;2022-12-20T00:10:01;37.83;;;22.25;;
63016;SDS011;50274;45.640;11.756;2022-12-20T00:15:27;33.78;;;19.98;;
63016;SDS011;50274;45.640;11.756;2022-12-20T00:17:55;41.63;;;23.07;;
63016;SDS011;50274;45.640;11.756;2022-12-20T00:20:22;39.92;;;20.92;;
63016;SDS011;50274;45.640;11.756;2022-12-20T00:22:48;40.92;;;22.48;;
63016;SDS011;50274;45.640;11.756;2022-12-20T00:25:14;38.85;;;23.17;;
63016;SDS011;50274;45.640;11.756;2022-12-20T00:27:40;42.80;;;24.27;;
63016;SDS011;50274;45.640;11.756;2022-12-20T00:30:06;42.20;;;23.08;;
63016;SDS011;50274;45.640;11.756;2022-12-20T00:32:33;37.90;;;20.88;;
63016;SDS011;50274;45.640;11.756;2022-12-20T00:34:59;43.00;;;24.15;;
63016;SDS011;50274;45.640;11.756;2022-12-20T00:37:26;44.83;;;24.33;;
63016;SDS011;50274;45.640;11.756;2022-12-20T00:39:52;36.88;;;21.13;;
63016;SDS011;50274;45.640;11.756;2022-12-20T00:42:19;34.40;;;20.58;;
63016;SDS011;50274;45.640;11.756;2022-12-20T00:44:45;42.33;;;23.45;;
63016;SDS011;50274;45.640;11.756;2022-12-20T00:47:11;37.57;;;21.70;;
63016;SDS011;50274;45.640;11.756;2022-12-20T00:49:37;37.90;;;22.80;;
63016;SDS011;50274;45.640;11.756;2022-12-20T00:52:03;36.13;;;22.27;;
63016;SDS011;50274;45.640;11.756;2022-12-20T00:54:29;35.27;;;21.97;;
63016;SDS011;50274;45.640;11.756;2022-12-20T00:56:55;40.08;;;23.65;;
63016;SDS011;50274;45.640;11.756;2022-12-20T00:59:20;44.30;;;23.67;;
63016;SDS011;50274;45.640;11.756;2022-12-20T01:01:46;39.47;;;23.27;;
63016;SDS011;50274;45.640;11.756;2022-12-20T01:04:12;36.17;;;21.38;;
63016;SDS011;50274;45.640;11.756;2022-12-20T01:06:38;38.00;;;20.88;;
63016;SDS011;50274;45.640;11.756;2022-12-20T01:09:04;47.90;;;25.90;;
63016;SDS011;50274;45.640;11.756;2022-12-20T01:11:32;42.58;;;24.17;;
63016;SDS011;50274;45.640;11.756;2022-12-20T01:14:01;49.00;;;24.63;;
63016;SDS011;50274;45.640;11.756;2022-12-20T01:16:36;39.00;;;21.08;;
63016;SDS011;50274;45.640;11.756;2022-12-20T01:19:04;46.30;;;23.27;;
63016;SDS011;50274;45.640;11.756;2022-12-20T01:21:31;42.73;;;22.70;;
63016;SDS011;50274;45.640;11.756;2022-12-20T01:23:57;47.75;;;23.65;;
63016;SDS011;50274;45.640;11.756;2022-12-20T01:26:24;45.17;;;22.35;;
63016;SDS011;50274;45.640;11.756;2022-12-20T01:28:52;40.80;;;21.48;;
63016;SDS011;50274;45.640;11.756;2022-12-20T01:31:22;52.92;;;27.02;;
63016;SDS011;50274;45.640;11.756;2022-12-20T01:33:48;49.30;;;25.00;;
63016;SDS011;50274;45.640;11.756;2022-12-20T01:36:18;55.67;;;26.58;;
63016;SDS011;50274;45.640;11.756;2022-12-20T01:38:46;40.40;;;21.52;;
63016;SDS011;50274;45.640;11.756;2022-12-20T01:41:18;39.83;;;22.95;;
63016;SDS011;50274;45.640;11.756;2022-12-20T01:46:41;35.78;;;19.75;;
63016;SDS011;50274;45.640;11.756;2022-12-20T01:51:54;35.22;;;18.75;;
63016;SDS011;50274;45.640;11.756;2022-12-20T01:54:25;40.33;;;22.60;;
63016;SDS011;50274;45.640;11.756;2022-12-20T01:57:00;38.97;;;22.47;;
63016;SDS011;50274;45.640;11.756;2022-12-20T01:59:28;40.17;;;22.25;;
63016;SDS011;50274;45.640;11.756;2022-12-20T02:01:59;34.72;;;20.33;;
63016;SDS011;50274;45.640;11.756;2022-12-20T02:04:29;43.58;;;25.02;;
63016;SDS011;50274;45.640;11.756;2022-12-20T02:06:55;34.28;;;20.70;;
63016;SDS011;50274;45.640;11.756;2022-12-20T02:09:22;35.23;;;20.20;;
63016;SDS011;50274;45.640;11.756;2022-12-20T02:15:07;36.75;;;19.58;;
63016;SDS011;50274;45.640;11.756;2022-12-20T02:17:36;33.88;;;19.90;;
63016;SDS011;50274;45.640;11.756;2022-12-20T02:35:25;37.83;;;20.27;;
63016;SDS011;50274;45.640;11.756;2022-12-20T02:37:54;42.23;;;23.13;;
63016;SDS011;50274;45.640;11.756;2022-12-20T02:40:23;41.33;;;23.00;;
63016;SDS011;50274;45.640;11.756;2022-12-20T02:42:57;39.58;;;20.67;;
63016;SDS011;50274;45.640;11.756;2022-12-20T02:45:26;37.20;;;21.90;;
63016;SDS011;50274;45.640;11.756;2022-12-20T02:47:59;36.72;;;20.98;;
63016;SDS011;50274;45.640;11.756;2022-12-20T02:50:35;47.30;;;24.57;;
63016;SDS011;50274;45.640;11.756;2022-12-20T02:53:06;39.10;;;21.25;;
63016;SDS011;50274;45.640;11.756;2022-12-20T03:01:02;37.60;;;21.13;;
63016;SDS011;50274;45.640;11.756;2022-12-20T03:03:33;41.83;;;21.77;;
63016;SDS011;50274;45.640;11.756;2022-12-20T03:06:00;37.97;;;21.98;;
63016;SDS011;50274;45.640;11.756;2022-12-20T03:08:26;41.28;;;22.80;;
63016;SDS011;50274;45.640;11.756;2022-12-20T03:10:53;35.17;;;20.40;;
63016;SDS011;50274;45.640;11.756;2022-12-20T03:13:20;39.03;;;20.77;;
63016;SDS011;50274;45.640;11.756;2022-12-20T03:15:47;40.70;;;23.02;;
63016;SDS011;50274;45.640;11.756;2022-12-20T03:18:13;35.95;;;20.83;;
63016;SDS011;50274;45.640;11.756;2022-12-20T03:20:39;43.40;;;22.73;;
63016;SDS011;50274;45.640;11.756;2022-12-20T03:23:05;32.83;;;17.83;;
63016;SDS011;50274;45.640;11.756;2022-12-20T03:25:30;35.63;;;19.90;;
63016;SDS011;50274;45.640;11.756;2022-12-20T03:27:56;36.10;;;21.05;;
63016;SDS011;50274;45.640;11.756;2022-12-20T03:30:22;43.50;;;23.83;;
63016;SDS011;50274;45.640;11.756;2022-12-20T03:32:48;39.53;;;21.30;;
63016;SDS011;50274;45.640;11.756;2022-12-20T03:35:14;33.95;;;18.70;;
63016;SDS011;50274;45.640;11.756;2022-12-20T03:37:40;31.65;;;18.50;;
63016;SDS011;50274;45.640;11.756;2022-12-20T03:40:06;34.13;;;17.97;;
63016;SDS011;50274;45.640;11.756;2022-12-20T03:42:33;40.35;;;21.33;;
63016;SDS011;50274;45.640;11.756;2022-12-20T03:45:00;33.63;;;18.98;;
63016;SDS011;50274;45.640;11.756;2022-12-20T03:47:26;37.90;;;21.35;;
63016;SDS011;50274;45.640;11.756;2022-12-20T03:49:52;30.30;;;18.53;;
63016;SDS011;50274;45.640;11.756;2022-12-20T03:52:18;30.67;;;17.55;;
63016;SDS011;50274;45.640;11.756;2022-12-20T03:54:43;35.40;;;19.80;;
63016;SDS011;50274;45.640;11.756;2022-12-20T03:57:09;31.20;;;19.40;;
63016;SDS011;50274;45.640;11.756;2022-12-20T03:59:35;43.03;;;21.63;;
63016;SDS011;50274;45.640;11.756;2022-12-20T04:02:01;33.07;;;18.07;;
63016;SDS011;50274;45.640;11.756;2022-12-20T04:04:27;34.03;;;18.13;;
63016;SDS011;50274;45.640;11.756;2022-12-20T04:06:53;34.25;;;18.88;;
63016;SDS011;50274;45.640;11.756;2022-12-20T04:09:19;31.33;;;17.33;;
63016;SDS011;50274;45.640;11.756;2022-12-20T04:11:45;37.40;;;18.47;;
63016;SDS011;50274;45.640;11.756;2022-12-20T04:14:11;27.75;;;16.70;;
63016;SDS011;50274;45.640;11.756;2022-12-20T04:16:37;33.10;;;19.10;;
63016;SDS011;50274;45.640;11.756;2022-12-20T04:19:03;29.93;;;16.93;;
63016;SDS011;50274;45.640;11.756;2022-12-20T04:21:30;28.38;;;15.27;;
63016;SDS011;50274;45.640;11.756;2022-12-20T04:23:59;34.28;;;19.55;;
63016;SDS011;50274;45.640;11.756;2022-12-20T04:26:26;28.73;;;16.35;;
63016;SDS011;50274;45.640;11.756;2022-12-20T04:28:52;35.30;;;18.57;;
63016;SDS011;50274;45.640;11.756;2022-12-20T04:31:18;29.67;;;16.70;;
63016;SDS011;50274;45.640;11.756;2022-12-20T04:33:44;31.17;;;17.48;;
63016;SDS011;50274;45.640;11.756;2022-12-20T04:36:11;35.30;;;18.33;;
63016;SDS011;50274;45.640;11.756;2022-12-20T04:38:37;36.50;;;16.55;;
63016;SDS011;50274;45.640;11.756;2022-12-20T04:41:03;31.30;;;16.67;;
63016;SDS011;50274;45.640;11.756;2022-12-20T04:43:29;29.45;;;15.93;;
63016;SDS011;50274;45.640;11.756;2022-12-20T04:45:55;28.77;;;16.23;;
63016;SDS011;50274;45.640;11.756;2022-12-20T04:48:22;29.33;;;16.40;;
63016;SDS011;50274;45.640;11.756;2022-12-20T04:50:53;32.75;;;16.83;;
63016;SDS011;50274;45.640;11.756;2022-12-20T04:53:19;31.83;;;18.13;;
63016;SDS011;50274;45.640;11.756;2022-12-20T04:56:04;30.75;;;17.23;;
63016;SDS011;50274;45.640;11.756;2022-12-20T04:58:31;31.60;;;18.63;;
63016;SDS011;50274;45.640;11.756;2022-12-20T05:00:56;41.03;;;19.80;;
63016;SDS011;50274;45.640;11.756;2022-12-20T05:03:23;34.30;;;18.63;;
63016;SDS011;50274;45.640;11.756;2022-12-20T05:05:50;30.67;;;16.70;;
63016;SDS011;50274;45.640;11.756;2022-12-20T05:08:16;37.42;;;17.90;;
63016;SDS011;50274;45.640;11.756;2022-12-20T05:10:42;29.07;;;16.10;;
63016;SDS011;50274;45.640;11.756;2022-12-20T05:13:08;32.63;;;17.75;;
63016;SDS011;50274;45.640;11.756;2022-12-20T05:15:35;43.08;;;21.45;;
63016;SDS011;50274;45.640;11.756;2022-12-20T05:18:01;36.97;;;19.10;;
63016;SDS011;50274;45.640;11.756;2022-12-20T05:20:30;37.33;;;20.13;;
63016;SDS011;50274;45.640;11.756;2022-12-20T05:22:57;26.55;;;15.73;;
63016;SDS011;50274;45.640;11.756;2022-12-20T05:25:45;29.55;;;16.45;;
63016;SDS011;50274;45.640;11.756;2022-12-20T05:28:31;32.72;;;17.48;;
63016;SDS011;50274;45.640;11.756;2022-12-20T05:30:58;28.60;;;15.50;;
63016;SDS011;50274;45.640;11.756;2022-12-20T05:33:24;36.50;;;19.87;;
63016;SDS011;50274;45.640;11.756;2022-12-20T05:35:50;26.13;;;15.38;;
63016;SDS011;50274;45.640;11.756;2022-12-20T05:38:16;30.95;;;17.60;;
63016;SDS011;50274;45.640;11.756;2022-12-20T05:40:42;33.78;;;18.17;;
63016;SDS011;50274;45.640;11.756;2022-12-20T05:43:11;39.08;;;20.27;;
63016;SDS011;50274;45.640;11.756;2022-12-20T05:45:36;26.47;;;14.53;;
63016;SDS011;50274;45.640;11.756;2022-12-20T05:48:02;27.35;;;16.17;;
63016;SDS011;50274;45.640;11.756;2022-12-20T05:50:28;27.67;;;15.30;;
63016;SDS011;50274;45.640;11.756;2022-12-20T05:52:54;33.92;;;17.20;;
63016;SDS011;50274;45.640;11.756;2022-12-20T05:55:20;28.75;;;16.15;;
63016;SDS011;50274;45.640;11.756;2022-12-20T05:57:46;29.73;;;15.93;;
63016;SDS011;50274;45.640;11.756;2022-12-20T06:00:11;30.80;;;16.88;;
63016;SDS011;50274;45.640;11.756;2022-12-20T06:02:38;32.35;;;16.58;;
63016;SDS011;50274;45.640;11.756;2022-12-20T06:05:04;30.63;;;16.97;;
63016;SDS011;50274;45.640;11.756;2022-12-20T06:07:30;29.25;;;17.38;;
63016;SDS011;50274;45.640;11.756;2022-12-20T06:09:57;32.22;;;18.48;;
63016;SDS011;50274;45.640;11.756;2022-12-20T06:12:23;28.30;;;16.73;;
63016;SDS011;50274;45.640;11.756;2022-12-20T06:14:49;36.25;;;20.42;;
63016;SDS011;50274;45.640;11.756;2022-12-20T06:17:15;34.27;;;17.43;;
63016;SDS011;50274;45.640;11.756;2022-12-20T06:19:42;34.58;;;18.27;;
63016;SDS011;50274;45.640;11.756;2022-12-20T06:22:08;37.80;;;18.98;;
63016;SDS011;50274;45.640;11.756;2022-12-20T06:24:34;37.83;;;19.42;;
63016;SDS011;50274;45.640;11.756;2022-12-20T06:27:01;39.53;;;20.97;;
63016;SDS011;50274;45.640;11.756;2022-12-20T06:29:27;31.45;;;17.23;;
63016;SDS011;50274;45.640;11.756;2022-12-20T06:31:53;29.00;;;16.95;;
63016;SDS011;50274;45.640;11.756;2022-12-20T06:34:20;33.28;;;18.35;;
63016;SDS011;50274;45.640;11.756;2022-12-20T06:36:46;38.33;;;19.35;;
63016;SDS011;50274;45.640;11.756;2022-12-20T06:39:12;36.60;;;17.23;;
63016;SDS011;50274;45.640;11.756;2022-12-20T06:41:38;40.65;;;21.13;;
63016;SDS011;50274;45.640;11.756;2022-12-20T06:44:04;25.88;;;15.73;;
63016;SDS011;50274;45.640;11.756;2022-12-20T06:46:30;30.10;;;16.85;;
63016;SDS011;50274;45.640;11.756;2022-12-20T06:48:56;34.87;;;19.00;;
63016;SDS011;50274;45.640;11.756;2022-12-20T06:51:28;31.35;;;18.25;;
63016;SDS011;50274;45.640;11.756;2022-12-20T06:53:54;30.17;;;16.83;;
63016;SDS011;50274;45.640;11.756;2022-12-20T06:56:20;31.00;;;16.83;;
63016;SDS011;50274;45.640;11.756;2022-12-20T06:58:46;29.45;;;15.32;;
63016;SDS011;50274;45.640;11.756;2022-12-20T07:01:12;26.43;;;15.00;;
63016;SDS011;50274;45.640;11.756;2022-12-20T07:03:38;31.60;;;16.17;;
63016;SDS011;50274;45.640;11.756;2022-12-20T07:06:03;26.02;;;14.13;;
63016;SDS011;50274;45.640;11.756;2022-12-20T07:08:29;30.40;;;17.20;;
63016;SDS011;50274;45.640;11.756;2022-12-20T07:10:55;28.93;;;14.37;;
63016;SDS011;50274;45.640;11.756;2022-12-20T07:13:26;27.73;;;16.02;;
63016;SDS011;50274;45.640;11.756;2022-12-20T07:15:56;27.65;;;15.30;;
63016;SDS011;50274;45.640;11.756;2022-12-20T07:18:23;27.37;;;14.63;;
63016;SDS011;50274;45.640;11.756;2022-12-20T07:20:49;23.92;;;13.77;;
63016;SDS011;50274;45.640;11.756;2022-12-20T07:23:15;23.88;;;13.07;;
63016;SDS011;50274;45.640;11.756;2022-12-20T07:25:41;27.47;;;15.27;;
63016;SDS011;50274;45.640;11.756;2022-12-20T07:28:06;25.65;;;13.73;;
63016;SDS011;50274;45.640;11.756;2022-12-20T07:30:32;28.57;;;15.87;;
63016;SDS011;50274;45.640;11.756;2022-12-20T07:32:58;25.13;;;15.00;;
63016;SDS011;50274;45.640;11.756;2022-12-20T07:35:24;27.53;;;16.13;;
63016;SDS011;50274;45.640;11.756;2022-12-20T07:37:50;23.47;;;14.33;;
63016;SDS011;50274;45.640;11.756;2022-12-20T07:40:16;21.92;;;13.60;;
63016;SDS011;50274;45.640;11.756;2022-12-20T07:42:42;25.88;;;13.50;;
63016;SDS011;50274;45.640;11.756;2022-12-20T07:45:08;21.97;;;13.53;;
63016;SDS011;50274;45.640;11.756;2022-12-20T07:47:34;25.40;;;15.63;;
63016;SDS011;50274;45.640;11.756;2022-12-20T07:49:59;24.47;;;14.60;;
63016;SDS011;50274;45.640;11.756;2022-12-20T07:52:27;22.67;;;14.20;;
63016;SDS011;50274;45.640;11.756;2022-12-20T07:54:55;25.88;;;15.75;;
63016;SDS011;50274;45.640;11.756;2022-12-20T07:57:25;29.45;;;14.82;;
63016;SDS011;50274;45.640;11.756;2022-12-20T08:00:07;32.60;;;18.27;;
63016;SDS011;50274;45.640;11.756;2022-12-20T08:02:35;22.27;;;12.80;;
63016;SDS011;50274;45.640;11.756;2022-12-20T08:05:04;27.47;;;15.63;;
63016;SDS011;50274;45.640;11.756;2022-12-20T08:07:33;29.48;;;16.70;;
63016;SDS011;50274;45.640;11.756;2022-12-20T08:10:01;29.40;;;16.05;;
63016;SDS011;50274;45.640;11.756;2022-12-20T08:12:28;30.83;;;17.23;;
63016;SDS011;50274;45.640;11.756;2022-12-20T08:14:56;34.97;;;18.98;;
63016;SDS011;50274;45.640;11.756;2022-12-20T08:17:22;45.33;;;22.17;;
63016;SDS011;50274;45.640;11.756;2022-12-20T08:19:48;35.03;;;19.00;;
63016;SDS011;50274;45.640;11.756;2022-12-20T08:22:16;40.88;;;22.00;;
63016;SDS011;50274;45.640;11.756;2022-12-20T08:24:43;30.55;;;17.67;;
63016;SDS011;50274;45.640;11.756;2022-12-20T08:27:09;32.27;;;17.77;;
63016;SDS011;50274;45.640;11.756;2022-12-20T08:29:35;39.90;;;19.95;;
63016;SDS011;50274;45.640;11.756;2022-12-20T08:32:01;32.72;;;19.90;;
63016;SDS011;50274;45.640;11.756;2022-12-20T08:34:26;35.47;;;20.43;;
63016;SDS011;50274;45.640;11.756;2022-12-20T08:36:52;36.47;;;19.63;;
63016;SDS011;50274;45.640;11.756;2022-12-20T08:39:18;32.13;;;19.00;;
63016;SDS011;50274;45.640;11.756;2022-12-20T08:41:44;33.28;;;18.80;;
63016;SDS011;50274;45.640;11.756;2022-12-20T08:44:10;37.40;;;20.30;;
63016;SDS011;50274;45.640;11.756;2022-12-20T08:46:36;38.92;;;19.73;;
63016;SDS011;50274;45.640;11.756;2022-12-20T08:49:02;38.83;;;20.55;;
63016;SDS011;50274;45.640;11.756;2022-12-20T08:51:29;27.40;;;16.88;;
63016;SDS011;50274;45.640;11.756;2022-12-20T08:53:55;29.90;;;17.67;;
63016;SDS011;50274;45.640;11.756;2022-12-20T08:56:21;30.95;;;17.95;;
63016;SDS011;50274;45.640;11.756;2022-12-20T08:58:47;30.58;;;17.48;;
63016;SDS011;50274;45.640;11.756;2022-12-20T09:01:14;32.60;;;17.33;;
63016;SDS011;50274;45.640;11.756;2022-12-20T09:03:43;35.00;;;19.13;;
63016;SDS011;50274;45.640;11.756;2022-12-20T09:06:11;35.30;;;19.93;;
63016;SDS011;50274;45.640;11.756;2022-12-20T09:08:38;34.08;;;20.05;;
63016;SDS011;50274;45.640;11.756;2022-12-20T09:11:06;35.00;;;17.63;;
63016;SDS011;50274;45.640;11.756;2022-12-20T09:13:36;25.55;;;15.20;;
63016;SDS011;50274;45.640;11.756;2022-12-20T09:16:02;30.00;;;16.52;;
63016;SDS011;50274;45.640;11.756;2022-12-20T09:18:30;32.47;;;17.50;;
63016;SDS011;50274;45.640;11.756;2022-12-20T09:21:01;30.60;;;18.13;;
63016;SDS011;50274;45.640;11.756;2022-12-20T09:23:28;25.00;;;15.23;;
63016;SDS011;50274;45.640;11.756;2022-12-20T09:25:55;33.80;;;18.75;;
63016;SDS011;50274;45.640;11.756;2022-12-20T09:28:29;32.40;;;20.20;;
63016;SDS011;50274;45.640;11.756;2022-12-20T09:30:59;37.37;;;18.63;;
63016;SDS011;50274;45.640;11.756;2022-12-20T09:33:26;38.63;;;20.73;;
63016;SDS011;50274;45.640;11.756;2022-12-20T09:35:53;38.60;;;21.27;;
63016;SDS011;50274;45.640;11.756;2022-12-20T09:38:18;33.90;;;19.08;;
63016;SDS011;50274;45.640;11.756;2022-12-20T09:40:46;32.93;;;19.17;;
63016;SDS011;50274;45.640;11.756;2022-12-20T09:43:13;32.55;;;17.55;;
63016;SDS011;50274;45.640;11.756;2022-12-20T09:45:41;32.20;;;17.90;;
63016;SDS011;50274;45.640;11.756;2022-12-20T09:48:09;33.42;;;19.70;;
63016;SDS011;50274;45.640;11.756;2022-12-20T09:56:04;30.08;;;17.75;;
63016;SDS011;50274;45.640;11.756;2022-12-20T10:01:27;30.67;;;17.08;;
63016;SDS011;50274;45.640;11.756;2022-12-20T10:03:56;35.17;;;19.05;;
63016;SDS011;50274;45.640;11.756;2022-12-20T10:09:03;26.52;;;15.52;;
63016;SDS011;50274;45.640;11.756;2022-12-20T10:11:44;28.67;;;16.23;;
63016;SDS011;50274;45.640;11.756;2022-12-20T10:14:43;28.40;;;16.65;;
63016;SDS011;50274;45.640;11.756;2022-12-20T10:17:45;29.38;;;15.70;;
63016;SDS011;50274;45.640;11.756;2022-12-20T10:23:24;27.02;;;15.32;;
63016;SDS011;50274;45.640;11.756;2022-12-20T10:26:07;27.45;;;15.55;;
63016;SDS011;50274;45.640;11.756;2022-12-20T10:28:35;31.73;;;17.65;;
63016;SDS011;50274;45.640;11.756;2022-12-20T10:31:02;31.73;;;16.48;;
63016;SDS011;50274;45.640;11.756;2022-12-20T10:33:32;31.07;;;16.47;;
63016;SDS011;50274;45.640;11.756;2022-12-20T10:36:32;28.13;;;15.60;;
63016;SDS011;50274;45.640;11.756;2022-12-20T10:38:58;23.02;;;13.63;;
63016;SDS011;50274;45.640;11.756;2022-12-20T10:41:30;25.48;;;13.88;;
63016;SDS011;50274;45.640;11.756;2022-12-20T10:46:40;30.93;;;15.83;;
63016;SDS011;50274;45.640;11.756;2022-12-20T10:51:53;32.15;;;17.52;;
63016;SDS011;50274;45.640;11.756;2022-12-20T10:54:23;26.20;;;14.75;;
63016;SDS011;50274;45.640;11.756;2022-12-20T10:56:54;35.17;;;17.23;;
63016;SDS011;50274;45.640;11.756;2022-12-20T11:01:55;31.75;;;17.80;;
63016;SDS011;50274;45.640;11.756;2022-12-20T11:06:57;37.42;;;21.75;;
63016;SDS011;50274;45.640;11.756;2022-12-20T11:09:29;36.13;;;20.03;;
63016;SDS011;50274;45.640;11.756;2022-12-20T11:12:02;32.63;;;18.67;;
63016;SDS011;50274;45.640;11.756;2022-12-20T11:14:31;33.00;;;19.80;;
63016;SDS011;50274;45.640;11.756;2022-12-20T11:17:00;33.38;;;20.10;;
63016;SDS011;50274;45.640;11.756;2022-12-20T11:19:58;33.70;;;19.52;;
63016;SDS011;50274;45.640;11.756;2022-12-20T11:34:09;39.05;;;20.83;;
63016;SDS011;50274;45.640;11.756;2022-12-20T11:56:25;31.65;;;17.98;;
63016;SDS011;50274;45.640;11.756;2022-12-20T12:01:28;29.20;;;16.75;;
63016;SDS011;50274;45.640;11.756;2022-12-20T12:04:20;27.53;;;15.77;;
63016;SDS011;50274;45.640;11.756;2022-12-20T12:06:48;38.67;;;19.83;;
63016;SDS011;50274;45.640;11.756;2022-12-20T12:10:03;28.67;;;16.27;;
63016;SDS011;50274;45.640;11.756;2022-12-20T12:12:21;29.45;;;16.50;;
63016;SDS011;50274;45.640;11.756;2022-12-20T12:17:45;27.37;;;15.40;;
63016;SDS011;50274;45.640;11.756;2022-12-20T12:20:22;24.55;;;14.18;;
63016;SDS011;50274;45.640;11.756;2022-12-20T12:22:54;28.02;;;15.60;;
63016;SDS011;50274;45.640;11.756;2022-12-20T12:25:27;25.58;;;14.80;;
63016;SDS011;50274;45.640;11.756;2022-12-20T12:27:53;25.30;;;14.43;;
63016;SDS011;50274;45.640;11.756;2022-12-20T12:30:18;24.53;;;14.43;;
63016;SDS011;50274;45.640;11.756;2022-12-20T12:32:46;22.42;;;13.45;;
63016;SDS011;50274;45.640;11.756;2022-12-20T12:35:27;26.45;;;14.48;;
63016;SDS011;50274;45.640;11.756;2022-12-20T12:38:15;25.73;;;14.98;;
63016;SDS011;50274;45.640;11.756;2022-12-20T12:46:45;22.40;;;12.50;;
63016;SDS011;50274;45.640;11.756;2022-12-20T12:49:18;22.23;;;11.77;;
63016;SDS011;50274;45.640;11.756;2022-12-20T12:51:51;24.65;;;13.38;;
63016;SDS011;50274;45.640;11.756;2022-12-20T12:54:23;20.77;;;12.17;;
63016;SDS011;50274;45.640;11.756;2022-12-20T12:57:10;23.70;;;13.10;;
63016;SDS011;50274;45.640;11.756;2022-12-20T12:59:40;25.05;;;14.05;;
63016;SDS011;50274;45.640;11.756;2022-12-20T13:04:52;24.65;;;12.93;;
63016;SDS011;50274;45.640;11.756;2022-12-20T13:07:40;23.90;;;14.27;;
63016;SDS011;50274;45.640;11.756;2022-12-20T13:17:47;24.02;;;13.70;;
63016;SDS011;50274;45.640;11.756;2022-12-20T13:20:27;27.80;;;16.10;;
63016;SDS011;50274;45.640;11.756;2022-12-20T13:25:33;28.65;;;16.23;;
63016;SDS011;50274;45.640;11.756;2022-12-20T13:33:45;26.27;;;14.87;;
63016;SDS011;50274;45.640;11.756;2022-12-20T13:43:51;27.47;;;13.80;;
63016;SDS011;50274;45.640;11.756;2022-12-20T13:46:20;26.00;;;14.23;;
63016;SDS011;50274;45.640;11.756;2022-12-20T13:49:04;23.70;;;13.23;;
63016;SDS011;50274;45.640;11.756;2022-12-20T13:51:35;24.45;;;14.60;;
63016;SDS011;50274;45.640;11.756;2022-12-20T13:54:02;22.37;;;12.73;;
63016;SDS011;50274;45.640;11.756;2022-12-20T13:56:48;20.17;;;11.20;;
63016;SDS011;50274;45.640;11.756;2022-12-20T13:59:25;20.58;;;11.70;;
63016;SDS011;50274;45.640;11.756;2022-12-20T14:01:56;20.85;;;10.93;;
63016;SDS011;50274;45.640;11.756;2022-12-20T14:04:27;20.05;;;10.73;;
63016;SDS011;50274;45.640;11.756;2022-12-20T14:07:07;18.50;;;10.23;;
63016;SDS011;50274;45.640;11.756;2022-12-20T14:09:37;19.20;;;9.82;;
63016;SDS011;50274;45.640;11.756;2022-12-20T14:12:16;17.70;;;9.68;;
63016;SDS011;50274;45.640;11.756;2022-12-20T14:14:43;26.38;;;13.77;;
63016;SDS011;50274;45.640;11.756;2022-12-20T14:17:21;25.38;;;13.40;;
63016;SDS011;50274;45.640;11.756;2022-12-20T14:22:36;25.25;;;14.02;;
63016;SDS011;50274;45.640;11.756;2022-12-20T14:25:04;21.77;;;12.35;;
63016;SDS011;50274;45.640;11.756;2022-12-20T14:27:32;19.55;;;11.02;;
63016;SDS011;50274;45.640;11.756;2022-12-20T14:30:02;20.02;;;10.25;;
63016;SDS011;50274;45.640;11.756;2022-12-20T14:32:30;19.50;;;11.13;;
63016;SDS011;50274;45.640;11.756;2022-12-20T14:34:56;21.88;;;11.02;;
63016;SDS011;50274;45.640;11.756;2022-12-20T14:37:32;18.75;;;9.93;;
63016;SDS011;50274;45.640;11.756;2022-12-20T14:42:37;19.17;;;9.55;;
63016;SDS011;50274;45.640;11.756;2022-12-20T14:47:52;19.90;;;10.30;;
63016;SDS011;50274;45.640;11.756;2022-12-20T14:50:25;20.40;;;10.70;;
63016;SDS011;50274;45.640;11.756;2022-12-20T14:53:02;18.08;;;10.38;;
63016;SDS011;50274;45.640;11.756;2022-12-20T14:55:37;22.08;;;11.55;;
63016;SDS011;50274;45.640;11.756;2022-12-20T14:58:25;18.43;;;10.60;;
63016;SDS011;50274;45.640;11.756;2022-12-20T15:00:54;20.05;;;11.38;;
63016;SDS011;50274;45.640;11.756;2022-12-20T15:03:22;21.90;;;11.48;;
63016;SDS011;50274;45.640;11.756;2022-12-20T15:05:49;18.45;;;9.75;;
63016;SDS011;50274;45.640;11.756;2022-12-20T15:08:26;17.15;;;8.85;;
63016;SDS011;50274;45.640;11.756;2022-12-20T15:11:00;21.43;;;11.00;;
63016;SDS011;50274;45.640;11.756;2022-12-20T15:13:34;20.45;;;11.52;;
63016;SDS011;50274;45.640;11.756;2022-12-20T15:16:04;21.70;;;11.05;;
63016;SDS011;50274;45.640;11.756;2022-12-20T15:18:30;17.60;;;9.77;;
63016;SDS011;50274;45.640;11.756;2022-12-20T15:20:59;17.98;;;10.15;;
63016;SDS011;50274;45.640;11.756;2022-12-20T15:23:28;16.70;;;9.40;;
63016;SDS011;50274;45.640;11.756;2022-12-20T15:25:55;20.67;;;10.27;;
63016;SDS011;50274;45.640;11.756;2022-12-20T15:28:24;19.13;;;11.00;;
63016;SDS011;50274;45.640;11.756;2022-12-20T15:30:51;18.67;;;9.90;;
63016;SDS011;50274;45.640;11.756;2022-12-20T15:35:47;19.27;;;11.30;;
63016;SDS011;50274;45.640;11.756;2022-12-20T15:38:14;19.30;;;10.93;;
63016;SDS011;50274;45.640;11.756;2022-12-20T15:40:45;19.73;;;10.05;;
63016;SDS011;50274;45.640;11.756;2022-12-20T15:43:13;19.90;;;11.13;;
63016;SDS011;50274;45.640;11.756;2022-12-20T15:45:44;18.52;;;10.32;;
63016;SDS011;50274;45.640;11.756;2022-12-20T15:48:21;16.73;;;10.17;;
63016;SDS011;50274;45.640;11.756;2022-12-20T15:50:52;18.50;;;10.20;;
63016;SDS011;50274;45.640;11.756;2022-12-20T15:53:20;17.65;;;9.85;;
63016;SDS011;50274;45.640;11.756;2022-12-20T15:55:57;18.77;;;10.77;;
63016;SDS011;50274;45.640;11.756;2022-12-20T15:58:24;18.05;;;10.05;;
63016;SDS011;50274;45.640;11.756;2022-12-20T16:00:54;20.37;;;10.77;;
63016;SDS011;50274;45.640;11.756;2022-12-20T16:03:28;18.90;;;11.25;;
63016;SDS011;50274;45.640;11.756;2022-12-20T16:05:55;19.30;;;10.90;;
63016;SDS011;50274;45.640;11.756;2022-12-20T16:08:21;19.77;;;12.00;;
63016;SDS011;50274;45.640;11.756;2022-12-20T16:10:48;20.67;;;10.97;;
63016;SDS011;50274;45.640;11.756;2022-12-20T16:13:16;21.27;;;11.93;;
63016;SDS011;50274;45.640;11.756;2022-12-20T16:15:49;23.08;;;13.05;;
63016;SDS011;50274;45.640;11.756;2022-12-20T16:18:18;19.30;;;10.82;;
63016;SDS011;50274;45.640;11.756;2022-12-20T16:20:44;22.70;;;12.10;;
63016;SDS011;50274;45.640;11.756;2022-12-20T16:23:16;21.98;;;11.93;;
63016;SDS011;50274;45.640;11.756;2022-12-20T16:25:43;19.00;;;10.90;;
63016;SDS011;50274;45.640;11.756;2022-12-20T16:28:10;22.10;;;12.75;;
63016;SDS011;50274;45.640;11.756;2022-12-20T16:30:36;22.87;;;12.13;;
63016;SDS011;50274;45.640;11.756;2022-12-20T16:33:02;21.00;;;10.90;;
63016;SDS011;50274;45.640;11.756;2022-12-20T16:35:32;23.83;;;13.02;;